Time,TemperatureF,DewpointF,PressureIn,WindDirection,WindDirectionDegrees,WindSpeedMPH,WindSpeedGustMPH,Humidity,HourlyPrecipIn,Conditions,Clouds,dailyrainin,SolarRadiationWatts/m^2,SoftwareType,DateUTC
2013-07-04 00:01:00,79.0,62.0,-100.00,ESE,102,5.0,12.0,57,0.00,,,0.00,0.000000,,2013-07-04 06:01:00,
2013-07-04 00:30:00,75.0,64.0,-100.00,NW,311,6.0,9.0,68,0.00,,,0.00,0.000000,,2013-07-04 06:30:00,
2013-07-04 01:12:00,75.0,64.0,-100.00,NW,311,6.0,9.0,68,0.00,,,0.00,0.000000,,2013-07-04 07:12:00,
2013-07-04 01:21:00,75.0,64.0,-100.00,NW,311,6.0,9.0,68,0.00,,,0.00,0.000000,,2013-07-04 07:21:00,
2013-07-04 01:30:00,72.0,60.0,-100.00,NW,314,8.0,11.0,65,0.00,,,0.00,0.000000,,2013-07-04 07:30:00,
2013-07-04 02:02:00,72.0,60.0,-100.00,NW,314,8.0,11.0,65,0.00,,,0.00,0.000000,,2013-07-04 08:02:00,
2013-07-04 02:11:00,72.0,60.0,-100.00,NW,314,8.0,11.0,65,0.00,,,0.00,0.000000,,2013-07-04 08:11:00,
2013-07-04 02:21:00,72.0,60.0,-100.00,NW,314,8.0,11.0,65,0.00,,,0.00,0.000000,,2013-07-04 08:21:00,
2013-07-04 02:30:00,70.0,61.0,-100.00,West,263,5.0,11.0,72,0.00,,,0.00,0.000000,,2013-07-04 08:30:00,
2013-07-04 03:02:00,70.0,61.0,-100.00,West,263,5.0,11.0,72,0.00,,,0.00,0.000000,,2013-07-04 09:02:00,
2013-07-04 03:11:00,70.0,61.0,-100.00,West,263,5.0,11.0,72,0.00,,,0.00,0.000000,,2013-07-04 09:11:00,
2013-07-04 03:22:00,70.0,61.0,-100.00,West,263,5.0,11.0,72,0.00,,,0.00,0.000000,,2013-07-04 09:22:00,
2013-07-04 03:30:00,67.0,61.0,-100.00,NW,313,6.0,7.0,81,0.00,,,0.00,0.000000,,2013-07-04 09:30:00,
2013-07-04 03:52:00,67.0,61.0,-100.00,NW,313,6.0,7.0,81,0.00,,,0.00,0.000000,,2013-07-04 09:52:00,
2013-07-04 04:01:00,67.0,61.0,-100.00,NW,313,6.0,7.0,81,0.00,,,0.00,0.000000,,2013-07-04 10:01:00,
2013-07-04 04:11:00,67.0,61.0,-100.00,NW,313,6.0,7.0,81,0.00,,,0.00,0.000000,,2013-07-04 10:11:00,
2013-07-04 04:22:00,67.0,61.0,-100.00,NW,313,6.0,7.0,81,0.00,,,0.00,0.000000,,2013-07-04 10:22:00,
2013-07-04 04:30:00,65.0,59.0,-100.00,West,268,4.0,8.0,81,0.00,,,0.00,0.000000,,2013-07-04 10:30:00,
2013-07-04 04:53:00,65.0,59.0,-100.00,West,268,4.0,8.0,81,0.00,,,0.00,0.000000,,2013-07-04 10:53:00,
2013-07-04 05:02:00,65.0,59.0,-100.00,West,268,4.0,8.0,81,0.00,,,0.00,0.000000,,2013-07-04 11:02:00,
2013-07-04 05:11:00,65.0,59.0,-100.00,West,268,4.0,8.0,81,0.00,,,0.00,0.000000,,2013-07-04 11:11:00,
2013-07-04 05:22:00,65.0,59.0,-100.00,West,268,4.0,8.0,81,0.00,,,0.00,0.000000,,2013-07-04 11:22:00,
2013-07-04 05:30:00,63.0,59.0,-100.00,WSW,249,4.0,5.0,87,0.00,,,0.00,0.000000,,2013-07-04 11:30:00,
2013-07-04 05:53:00,63.0,59.0,-100.00,WSW,249,4.0,5.0,87,0.00,,,0.00,0.000000,,2013-07-04 11:53:00,
2013-07-04 06:01:00,63.0,59.0,-100.00,WSW,249,4.0,5.0,87,0.00,,,0.00,0.000000,,2013-07-04 12:01:00,
2013-07-04 06:11:00,63.0,59.0,-100.00,WSW,249,4.0,5.0,87,0.00,,,0.00,0.000000,,2013-07-04 12:11:00,
2013-07-04 06:22:00,63.0,59.0,-100.00,WSW,249,4.0,5.0,87,0.00,,,0.00,0.000000,,2013-07-04 12:22:00,
2013-07-04 06:30:00,64.0,60.0,-100.00,WSW,257,5.0,7.0,87,0.00,,,0.00,16.000000,,2013-07-04 12:30:00,
2013-07-04 07:02:00,64.0,60.0,-100.00,WSW,257,5.0,7.0,87,0.00,,,0.00,16.000000,,2013-07-04 13:02:00,
2013-07-04 07:12:00,64.0,60.0,-100.00,WSW,257,5.0,7.0,87,0.00,,,0.00,16.000000,,2013-07-04 13:12:00,
2013-07-04 07:22:00,64.0,60.0,-100.00,WSW,257,5.0,7.0,87,0.00,,,0.00,16.000000,,2013-07-04 13:22:00,
2013-07-04 07:30:00,69.0,62.0,-100.00,WSW,254,4.0,7.0,79,0.00,,,0.00,132.000000,,2013-07-04 13:30:00,
2013-07-04 08:02:00,69.0,62.0,-100.00,WSW,254,4.0,7.0,79,0.00,,,0.00,132.000000,,2013-07-04 14:02:00,
2013-07-04 08:11:00,69.0,62.0,-100.00,WSW,254,4.0,7.0,79,0.00,,,0.00,132.000000,,2013-07-04 14:11:00,
2013-07-04 08:22:00,69.0,62.0,-100.00,WSW,254,4.0,7.0,79,0.00,,,0.00,132.000000,,2013-07-04 14:22:00,
2013-07-04 08:30:00,73.0,64.0,-100.00,NW,323,4.0,7.0,73,0.00,,,0.00,315.000000,,2013-07-04 14:30:00,
2013-07-04 09:02:00,73.0,64.0,-100.00,NW,323,4.0,7.0,73,0.00,,,0.00,315.000000,,2013-07-04 15:02:00,
2013-07-04 09:11:00,73.0,64.0,-100.00,NW,323,4.0,7.0,73,0.00,,,0.00,315.000000,,2013-07-04 15:11:00,
2013-07-04 09:23:00,73.0,64.0,-100.00,NW,323,4.0,7.0,73,0.00,,,0.00,315.000000,,2013-07-04 15:23:00,
2013-07-04 09:30:00,78.0,65.0,-100.00,WNW,300,6.0,8.0,65,0.00,,,-99.99,527.000000,,2013-07-04 15:30:00,
2013-07-04 09:52:00,78.0,65.0,-100.00,WNW,300,6.0,8.0,65,0.00,,,-99.99,527.000000,,2013-07-04 15:52:00,
2013-07-04 10:02:00,78.0,65.0,-100.00,WNW,300,6.0,8.0,65,0.00,,,-99.99,527.000000,,2013-07-04 16:02:00,
2013-07-04 10:11:00,78.0,65.0,-100.00,WNW,300,6.0,8.0,65,0.00,,,-99.99,527.000000,,2013-07-04 16:11:00,
2013-07-04 10:22:00,78.0,65.0,-100.00,WNW,300,6.0,8.0,65,0.00,,,-99.99,527.000000,,2013-07-04 16:22:00,
2013-07-04 10:30:00,82.0,61.0,-100.00,WSW,249,5.0,9.0,50,0.00,,,0.00,686.000000,,2013-07-04 16:30:00,
2013-07-04 10:52:00,82.0,61.0,-100.00,WSW,249,5.0,9.0,50,0.00,,,0.00,686.000000,,2013-07-04 16:52:00,
2013-07-04 11:01:00,82.0,61.0,-100.00,WSW,249,5.0,9.0,50,0.00,,,0.00,686.000000,,2013-07-04 17:01:00,
2013-07-04 11:11:00,82.0,61.0,-100.00,WSW,249,5.0,9.0,50,0.00,,,0.00,686.000000,,2013-07-04 17:11:00,
2013-07-04 11:22:00,82.0,61.0,-100.00,WSW,249,5.0,9.0,50,0.00,,,0.00,686.000000,,2013-07-04 17:22:00,
2013-07-04 11:30:00,83.0,52.0,-100.00,WSW,258,6.0,12.0,35,0.00,,,0.00,706.000000,,2013-07-04 17:30:00,
2013-07-04 11:53:00,83.0,52.0,-100.00,WSW,258,6.0,12.0,35,0.00,,,0.00,706.000000,,2013-07-04 17:53:00,
2013-07-04 12:01:00,83.0,52.0,-100.00,WSW,258,6.0,12.0,35,0.00,,,0.00,706.000000,,2013-07-04 18:01:00,
2013-07-04 12:11:00,83.0,52.0,-100.00,WSW,258,6.0,12.0,35,0.00,,,0.00,706.000000,,2013-07-04 18:11:00,
2013-07-04 12:22:00,83.0,52.0,-100.00,WSW,258,6.0,12.0,35,0.00,,,0.00,706.000000,,2013-07-04 18:22:00,
2013-07-04 12:30:00,85.0,46.0,-100.00,West,267,9.0,15.0,26,0.00,,,0.00,653.000000,,2013-07-04 18:30:00,
2013-07-04 13:01:00,85.0,46.0,-100.00,West,267,9.0,15.0,26,0.00,,,0.00,653.000000,,2013-07-04 19:01:00,
2013-07-04 13:11:00,85.0,46.0,-100.00,West,267,9.0,15.0,26,0.00,,,0.00,653.000000,,2013-07-04 19:11:00,
2013-07-04 13:22:00,85.0,46.0,-100.00,West,267,9.0,15.0,26,0.00,,,0.00,653.000000,,2013-07-04 19:22:00,
2013-07-04 13:30:00,87.0,38.0,-100.00,SW,222,7.0,17.0,18,0.00,,,0.00,1156.000000,,2013-07-04 19:30:00,
2013-07-04 14:01:00,87.0,38.0,-100.00,SW,222,7.0,17.0,18,0.00,,,0.00,1156.000000,,2013-07-04 20:01:00,
2013-07-04 14:11:00,87.0,38.0,-100.00,SW,222,7.0,17.0,18,0.00,,,0.00,1156.000000,,2013-07-04 20:11:00,
2013-07-04 14:30:00,91.0,44.0,-100.00,SW,218,6.0,17.0,20,0.00,,,0.00,1144.000000,,2013-07-04 20:30:00,
2013-07-04 14:53:00,91.0,44.0,-100.00,SW,218,6.0,17.0,20,0.00,,,0.00,1144.000000,,2013-07-04 20:53:00,
2013-07-04 15:01:00,91.0,44.0,-100.00,SW,218,6.0,17.0,20,0.00,,,0.00,1144.000000,,2013-07-04 21:01:00,
2013-07-04 15:11:00,91.0,44.0,-100.00,SW,218,6.0,17.0,20,0.00,,,0.00,1144.000000,,2013-07-04 21:11:00,
2013-07-04 15:22:00,91.0,44.0,-100.00,SW,218,6.0,17.0,20,0.00,,,0.00,1144.000000,,2013-07-04 21:22:00,
2013-07-04 15:30:00,91.0,46.0,-100.00,SSW,212,7.0,16.0,21,0.00,,,0.00,743.000000,,2013-07-04 21:30:00,
2013-07-04 15:53:00,91.0,46.0,-100.00,SSW,212,7.0,16.0,21,0.00,,,0.00,743.000000,,2013-07-04 21:53:00,
2013-07-04 16:01:00,91.0,46.0,-100.00,SSW,212,7.0,16.0,21,0.00,,,0.00,743.000000,,2013-07-04 22:01:00,
2013-07-04 16:11:00,91.0,46.0,-100.00,SSW,212,7.0,16.0,21,0.00,,,0.00,743.000000,,2013-07-04 22:11:00,
2013-07-04 16:22:00,91.0,46.0,-100.00,SSW,212,7.0,16.0,21,0.00,,,0.00,743.000000,,2013-07-04 22:22:00,
2013-07-04 16:30:00,91.0,40.0,-100.00,WSW,256,13.0,23.0,17,0.00,,,0.00,978.000000,,2013-07-04 22:30:00,
2013-07-04 16:52:00,91.0,40.0,-100.00,WSW,256,13.0,23.0,17,0.00,,,0.00,978.000000,,2013-07-04 22:52:00,
2013-07-04 17:01:00,91.0,40.0,-100.00,WSW,256,13.0,23.0,17,0.00,,,0.00,978.000000,,2013-07-04 23:01:00,
2013-07-04 17:11:00,91.0,40.0,-100.00,WSW,256,13.0,23.0,17,0.00,,,0.00,978.000000,,2013-07-04 23:11:00,
2013-07-04 17:23:00,91.0,40.0,-100.00,WSW,256,13.0,23.0,17,0.00,,,0.00,978.000000,,2013-07-04 23:23:00,
2013-07-04 18:30:00,89.0,41.0,-100.00,WSW,255,11.0,23.0,19,0.00,,,0.00,358.000000,,2013-07-05 00:30:00,
2013-07-04 18:52:00,89.0,41.0,-100.00,WSW,255,11.0,23.0,19,0.00,,,0.00,358.000000,,2013-07-05 00:52:00,
2013-07-04 19:01:00,89.0,41.0,-100.00,WSW,255,11.0,23.0,19,0.00,,,0.00,358.000000,,2013-07-05 01:01:00,
2013-07-04 19:11:00,89.0,41.0,-100.00,WSW,255,11.0,23.0,19,0.00,,,0.00,358.000000,,2013-07-05 01:11:00,
2013-07-04 19:21:00,89.0,41.0,-100.00,WSW,255,11.0,23.0,19,0.00,,,0.00,358.000000,,2013-07-05 01:21:00,
2013-07-04 19:30:00,89.0,38.0,-100.00,WSW,251,10.0,17.0,17,0.00,,,0.00,441.000000,,2013-07-05 01:30:00,
2013-07-04 19:52:00,89.0,38.0,-100.00,WSW,251,10.0,17.0,17,0.00,,,0.00,441.000000,,2013-07-05 01:52:00,
2013-07-04 20:02:00,89.0,38.0,-100.00,WSW,251,10.0,17.0,17,0.00,,,0.00,441.000000,,2013-07-05 02:02:00,
2013-07-04 20:11:00,89.0,38.0,-100.00,WSW,251,10.0,17.0,17,0.00,,,0.00,441.000000,,2013-07-05 02:11:00,
2013-07-04 20:21:00,89.0,38.0,-100.00,WSW,251,10.0,17.0,17,0.00,,,0.00,441.000000,,2013-07-05 02:21:00,
2013-07-04 20:30:00,85.0,37.0,-100.00,West,265,10.0,18.0,18,0.00,,,0.00,216.000000,,2013-07-05 02:30:00,
2013-07-04 20:52:00,85.0,37.0,-100.00,West,265,10.0,18.0,18,0.00,,,0.00,216.000000,,2013-07-05 02:52:00,
2013-07-04 21:02:00,85.0,37.0,-100.00,West,265,10.0,18.0,18,0.00,,,0.00,216.000000,,2013-07-05 03:02:00,
2013-07-04 21:11:00,85.0,37.0,-100.00,West,265,10.0,18.0,18,0.00,,,0.00,216.000000,,2013-07-05 03:11:00,
2013-07-04 21:21:00,85.0,37.0,-100.00,West,265,10.0,18.0,18,0.00,,,0.00,216.000000,,2013-07-05 03:21:00,
2013-07-04 21:52:00,83.0,40.0,-100.00,West,270,9.0,16.0,22,0.00,,,0.00,27.000000,,2013-07-05 03:52:00,
2013-07-04 22:01:00,83.0,40.0,-100.00,West,270,9.0,16.0,22,0.00,,,0.00,27.000000,,2013-07-05 04:01:00,
2013-07-04 22:11:00,83.0,40.0,-100.00,West,270,9.0,16.0,22,0.00,,,0.00,27.000000,,2013-07-05 04:11:00,
2013-07-04 22:21:00,83.0,40.0,-100.00,West,270,9.0,16.0,22,0.00,,,0.00,27.000000,,2013-07-05 04:21:00,
2013-07-04 23:12:00,81.0,41.0,-100.00,WSW,253,7.0,18.0,24,-99.99,,,0.00,1.000000,,2013-07-05 05:12:00,
2013-07-04 23:21:00,81.0,41.0,-100.00,WSW,253,7.0,18.0,24,-99.99,,,0.00,1.000000,,2013-07-05 05:21:00,
2013-07-04 23:52:00,76.0,41.0,-100.00,West,264,4.0,11.0,29,-99.99,,,0.00,0.000000,,2013-07-05 05:52:00,